createdAt,value
2019-05-13T00:00:41.453Z,102503.77
2019-05-13T00:03:13.717Z,102503.02
2019-05-13T00:05:45.912Z,102499.09
2019-05-13T00:08:17.660Z,102492.55
2019-05-13T00:10:49.483Z,102492.64
2019-05-13T00:13:23.569Z,102492.67
2019-05-13T00:15:56.576Z,102492.64
2019-05-13T00:18:28.420Z,102501.51
2019-05-13T00:21:00.146Z,102505.03
2019-05-13T00:23:34.018Z,102490.89
2019-05-13T00:26:06.107Z,102495.29
2019-05-13T00:28:37.953Z,102493.50
2019-05-13T00:31:09.674Z,102497.86
2019-05-13T00:33:41.428Z,102502.66
2019-05-13T00:36:14.269Z,102507.47
2019-05-13T00:38:46.181Z,102505.27
2019-05-13T00:41:17.906Z,102507.41
2019-05-13T00:43:49.648Z,102511.81
2019-05-13T00:46:23.599Z,102508.66
2019-05-13T00:48:56.008Z,102509.94
2019-05-13T00:51:29.360Z,102513.47
2019-05-13T00:54:01.004Z,102516.98
2019-05-13T00:56:34.478Z,102523.21
2019-05-13T00:59:06.065Z,102513.79
2019-05-13T01:01:37.783Z,102518.69
2019-05-13T01:04:09.632Z,102526.18
2019-05-13T01:06:43.535Z,102526.64
2019-05-13T01:09:15.580Z,102524.86
2019-05-13T01:11:47.907Z,102539.87
2019-05-13T01:14:19.744Z,102537.68
2019-05-13T01:16:54.365Z,102538.08
2019-05-13T01:19:25.996Z,102539.41
2019-05-13T01:21:57.709Z,102542.02
2019-05-13T01:24:29.446Z,102532.77
2019-05-13T01:27:03.995Z,102542.89
2019-05-13T01:29:34.879Z,102546.09
2019-05-13T01:32:06.597Z,102543.07
2019-05-13T01:34:38.343Z,102542.70
2019-05-13T01:37:10.157Z,102543.16
2019-05-13T01:39:43.712Z,102541.91
2019-05-13T01:42:15.427Z,102547.27
2019-05-13T01:44:47.261Z,102544.70
2019-05-13T01:47:18.984Z,102543.05
2019-05-13T01:49:50.728Z,102544.45
2019-05-13T01:52:23.748Z,102540.95
2019-05-13T01:54:56.740Z,102547.16
2019-05-13T01:57:28.468Z,102547.70
2019-05-13T02:00:00.313Z,102551.72
2019-05-13T02:02:33.644Z,102552.17
2019-05-13T02:05:07.101Z,102546.50
2019-05-13T02:07:38.627Z,102550.06
2019-05-13T02:10:14.436Z,102553.22
2019-05-13T02:12:46.458Z,102555.08
2019-05-13T02:15:18.482Z,102555.98
2019-05-13T02:17:50.506Z,102560.47
2019-05-13T02:20:24.660Z,102557.41
2019-05-13T02:22:55.895Z,102557.89
2019-05-13T02:25:27.640Z,102568.55
2019-05-13T02:27:59.467Z,102573.39
2019-05-13T02:30:34.670Z,102580.94
2019-05-13T02:33:04.429Z,102578.24
2019-05-13T02:35:36.279Z,102583.96
2019-05-13T02:38:19.724Z,102578.24
2019-05-13T02:40:43.325Z,102578.28
2019-05-13T02:43:16.224Z,102580.48
2019-05-13T02:45:47.879Z,102581.39
2019-05-13T02:48:22.895Z,102577.03
2019-05-13T02:50:53.958Z,102578.81
2019-05-13T02:53:26.240Z,102577.08
2019-05-13T02:55:57.995Z,102577.98
2019-05-13T02:58:32.946Z,102581.55
2019-05-13T03:01:03.637Z,102584.66
2019-05-13T03:03:35.442Z,102586.02
2019-05-13T03:06:07.256Z,102584.28
2019-05-13T03:08:46.374Z,102589.13
2019-05-13T03:11:12.726Z,102589.55
2019-05-13T03:13:44.636Z,102589.09
2019-05-13T03:16:18.027Z,102588.22
2019-05-13T03:18:52.421Z,102591.70
2019-05-13T03:21:23.860Z,102590.71
2019-05-13T03:23:55.586Z,102602.23
2019-05-13T03:26:27.429Z,102611.97
2019-05-13T03:29:02.520Z,102608.33
2019-05-13T03:31:35.879Z,102603.58
2019-05-13T03:34:07.592Z,102609.80
2019-05-13T03:36:45.823Z,102617.70
2019-05-13T03:39:16.318Z,102615.89
2019-05-13T03:41:53.009Z,102617.52
2019-05-13T03:44:26.007Z,102613.45
2019-05-13T03:47:03.435Z,102611.20
2019-05-13T03:49:36.588Z,102613.16
2019-05-13T03:52:08.328Z,102609.92
2019-05-13T03:54:43.549Z,102614.19
2019-05-13T03:57:15.837Z,102618.33
2019-05-13T03:59:48.843Z,102612.58
2019-05-13T04:02:22.598Z,102611.02
2019-05-13T04:04:58.587Z,102613.40
2019-05-13T04:07:27.795Z,102610.97
2019-05-13T04:10:03.016Z,102615.97
2019-05-13T04:12:33.470Z,102615.13
2019-05-13T04:15:07.737Z,102620.73
2019-05-13T04:17:42.532Z,102620.55
2019-05-13T04:20:14.620Z,102615.53
2019-05-13T04:22:46.439Z,102615.43
2019-05-13T04:25:18.367Z,102622.00
2019-05-13T04:27:52.375Z,102612.94
2019-05-13T04:30:25.600Z,102614.34
2019-05-13T04:33:02.375Z,102618.31
2019-05-13T04:35:44.355Z,102613.90
2019-05-13T04:38:15.073Z,102614.54
2019-05-13T04:40:48.048Z,102618.41
2019-05-13T04:43:23.235Z,102618.92
2019-05-13T04:45:53.948Z,102628.25
2019-05-13T11:51:23.827Z,102661.81
2019-05-13T11:53:54.315Z,102658.17
2019-05-13T11:56:26.647Z,102662.12
2019-05-13T11:58:58.407Z,102656.77
2019-05-13T12:01:33.475Z,102662.81
2019-05-13T12:04:04.306Z,102652.04
2019-05-13T12:06:43.794Z,102651.28
2019-05-13T12:09:13.195Z,102648.11
2019-05-13T12:11:43.645Z,102645.73
2019-05-13T12:14:41.000Z,102633.77
2019-05-13T12:16:48.735Z,102639.67
2019-05-13T12:19:21.932Z,102641.42
2019-05-13T12:21:54.344Z,102642.03
2019-05-13T12:24:26.432Z,102638.00
2019-05-13T12:26:58.243Z,102646.25
2019-05-13T12:29:29.940Z,102633.37
2019-05-13T12:32:03.283Z,102632.03
2019-05-13T12:34:40.585Z,102626.45
2019-05-13T12:37:08.968Z,102625.98
2019-05-13T12:39:43.942Z,102619.29
2019-05-13T12:42:22.454Z,102610.25
2019-05-13T12:45:03.937Z,102608.76
2019-05-13T12:47:25.583Z,102616.14
2019-05-13T12:49:57.441Z,102613.06
2019-05-13T12:52:32.573Z,102600.67
2019-05-13T12:55:05.260Z,102601.64
2019-05-13T12:57:39.128Z,102602.45
2019-05-13T13:00:13.240Z,102596.88
2019-05-13T13:02:50.418Z,102593.81
2019-05-13T13:05:21.277Z,102586.59
2019-05-13T13:08:15.955Z,102595.73
2019-05-13T13:10:26.095Z,102593.30
2019-05-13T13:12:57.857Z,102602.13
2019-05-13T13:15:40.756Z,102595.29
2019-05-13T13:18:04.800Z,102591.17
2019-05-13T13:20:42.269Z,102590.84
2019-05-13T13:23:13.915Z,102592.89
2019-05-13T13:25:52.930Z,102597.13
2019-05-13T13:28:23.785Z,102593.53
2019-05-13T13:30:54.660Z,102589.53
2019-05-13T13:33:26.357Z,102592.77
2019-05-13T13:36:01.200Z,102589.53
2019-05-13T13:38:32.995Z,102601.98
2019-05-13T13:41:05.176Z,102605.86
2019-05-13T13:43:38.177Z,102597.84
2019-05-13T13:46:25.061Z,102597.43
2019-05-13T13:48:45.278Z,102613.77
2019-05-13T13:51:18.473Z,102603.16
2019-05-13T13:53:56.464Z,102603.08
2019-05-13T13:56:25.196Z,102609.20
2019-05-13T13:58:57.961Z,102604.23
2019-05-13T14:01:33.833Z,102601.28
2019-05-13T14:04:05.957Z,102598.24
2019-05-13T14:09:12.036Z,102590.25
2019-05-13T14:11:45.350Z,102584.73
2019-05-13T14:14:21.549Z,102585.52
2019-05-13T14:16:52.979Z,102584.50
2019-05-13T14:19:27.227Z,102572.47
2019-05-13T14:22:01.686Z,102572.64
2019-05-13T14:24:33.514Z,102572.80
2019-05-13T14:27:08.456Z,102572.59
2019-05-13T14:29:48.907Z,102576.02
2019-05-13T14:32:15.813Z,102574.67
2019-05-13T14:34:47.776Z,102577.16
2019-05-13T14:37:22.374Z,102579.61
2019-05-13T14:39:55.591Z,102576.84
2019-05-13T14:42:27.421Z,102579.63
2019-05-13T14:45:01.746Z,102573.91
2019-05-13T14:47:33.115Z,102575.02
2019-05-13T14:50:12.183Z,102569.70
2019-05-13T14:52:45.272Z,102559.83
2019-05-13T14:55:22.590Z,102558.23
2019-05-13T14:57:55.699Z,102561.94
2019-05-13T15:00:28.365Z,102551.97
2019-05-13T15:03:02.958Z,102562.45
2019-05-13T15:05:35.314Z,102547.52
2019-05-13T15:08:07.085Z,102547.47
2019-05-13T15:10:38.974Z,102552.50
2019-05-13T15:13:10.641Z,102554.58
2019-05-13T15:15:43.651Z,102549.46
2019-05-13T15:18:16.989Z,102552.90
2019-05-13T15:20:49.554Z,102557.90
2019-05-13T15:23:23.646Z,102553.36
2019-05-13T15:25:55.234Z,102547.99
2019-05-13T15:28:27.249Z,102544.92
2019-05-13T15:31:00.229Z,102549.33
2019-05-13T15:33:32.935Z,102548.37
2019-05-13T15:36:04.969Z,102548.09
2019-05-13T15:38:36.810Z,102552.63
2019-05-13T15:41:14.681Z,102553.88
2019-05-13T15:43:43.173Z,102555.70
2019-05-13T15:46:15.296Z,102564.01
2019-05-13T15:48:47.714Z,102568.53
2019-05-13T15:51:22.113Z,102566.14
2019-05-13T15:53:57.111Z,102560.13
2019-05-13T15:56:31.273Z,102564.46
2019-05-13T15:59:02.309Z,102559.53
2019-05-13T16:01:34.523Z,102556.87
2019-05-13T16:04:06.062Z,102544.58
2019-05-13T16:06:37.881Z,102549.45
2019-05-13T16:09:11.733Z,102540.91
2019-05-13T16:11:43.177Z,102536.36
2019-05-13T16:14:15.108Z,102536.23
2019-05-13T16:16:47.073Z,102530.11
2019-05-13T16:19:21.966Z,102530.00
2019-05-13T16:21:56.379Z,102524.64
2019-05-13T16:24:31.929Z,102523.47
2019-05-13T16:27:06.967Z,102530.88
2019-05-13T16:29:42.130Z,102531.03
2019-05-13T16:32:15.303Z,102534.02
2019-05-13T16:34:48.670Z,102533.55
2019-05-13T16:37:22.138Z,102539.47
2019-05-13T16:39:56.340Z,102542.63
2019-05-13T16:42:31.690Z,102542.17
2019-05-13T16:45:03.328Z,102542.00
2019-05-13T16:47:36.120Z,102547.44
2019-05-13T16:50:11.502Z,102546.25
2019-05-13T16:52:44.277Z,102543.25
2019-05-13T16:55:17.184Z,102552.17
2019-05-13T16:57:51.360Z,102547.58
2019-05-13T17:00:23.815Z,102538.13
2019-05-13T17:02:55.685Z,102532.14
2019-05-13T17:05:27.280Z,102536.55
2019-05-13T17:07:58.961Z,102531.74
2019-05-13T17:10:31.666Z,102530.31
2019-05-13T17:13:03.539Z,102533.94
2019-05-13T17:15:35.400Z,102533.36
2019-05-13T17:18:11.963Z,102536.33
2019-05-13T17:20:41.522Z,102533.44
2019-05-13T17:23:13.581Z,102535.56
2019-05-13T17:25:46.663Z,102535.80
2019-05-13T17:28:21.859Z,102537.56
2019-05-13T17:30:54.513Z,102536.13
2019-05-13T17:33:28.201Z,102534.03
2019-05-13T17:36:01.891Z,102538.61
2019-05-13T17:38:34.438Z,102544.13
2019-05-13T17:41:06.619Z,102543.45
2019-05-13T17:43:41.262Z,102549.20
2019-05-13T17:46:13.208Z,102551.61
2019-05-13T17:48:45.076Z,102546.01
2019-05-13T17:51:22.577Z,102553.01
2019-05-13T17:53:54.499Z,102551.52
2019-05-13T17:56:26.965Z,102560.25
2019-05-13T17:59:01.799Z,102558.72
2019-05-13T18:01:38.118Z,102561.02
2019-05-13T18:04:11.938Z,102567.20
2019-05-13T18:06:45.061Z,102570.98
2019-05-13T18:09:17.668Z,102565.37
2019-05-13T18:11:49.747Z,102565.61
2019-05-13T18:14:23.312Z,102572.02
2019-05-13T18:17:02.178Z,102575.92
2019-05-13T18:19:34.910Z,102574.92
2019-05-13T18:22:08.155Z,102583.63
2019-05-13T18:24:41.328Z,102580.98
2019-05-13T18:27:13.417Z,102583.94
2019-05-13T18:29:45.168Z,102583.66
2019-05-13T18:32:21.423Z,102581.93
2019-05-13T18:34:53.273Z,102589.87
2019-05-13T18:37:25.562Z,102592.34
2019-05-13T18:39:58.101Z,102598.77
2019-05-13T18:42:31.758Z,102591.96
2019-05-13T18:45:05.699Z,102591.81
2019-05-13T18:47:37.741Z,102595.42
2019-05-13T18:50:11.638Z,102596.77
2019-05-13T18:52:43.654Z,102605.00
2019-05-13T18:55:15.374Z,102602.68
2019-05-13T18:57:47.019Z,102601.03
2019-05-13T19:00:21.637Z,102602.97
2019-05-13T19:02:53.744Z,102604.37
2019-05-13T19:05:26.776Z,102600.55
2019-05-13T19:07:58.956Z,102609.94
2019-05-13T19:10:31.240Z,102606.91
2019-05-13T19:13:03.178Z,102602.54
2019-05-13T19:15:35.013Z,102608.69
2019-05-13T19:18:07.006Z,102607.89
2019-05-13T19:20:41.891Z,102605.92
2019-05-13T19:23:15.053Z,102600.05
2019-05-13T19:25:48.257Z,102607.48
2019-05-13T19:28:22.130Z,102612.66
2019-05-13T19:30:56.803Z,102603.73
2019-05-13T19:33:28.678Z,102608.48
2019-05-13T19:36:01.601Z,102605.19
2019-05-13T19:38:36.854Z,102604.95
2019-05-13T19:41:11.661Z,102601.66
2019-05-13T19:43:43.275Z,102613.76
2019-05-13T19:46:15.454Z,102609.55
2019-05-13T19:48:47.481Z,102610.59
2019-05-13T19:51:21.623Z,102614.38
2019-05-13T19:53:52.842Z,102611.98
2019-05-13T19:56:26.678Z,102613.11
2019-05-13T19:58:58.652Z,102613.71
2019-05-13T20:01:32.170Z,102614.79
2019-05-13T20:04:04.491Z,102619.36
2019-05-13T20:06:36.255Z,102623.44
2019-05-13T20:09:11.274Z,102624.91
2019-05-13T20:11:43.201Z,102620.63
2019-05-13T20:14:16.408Z,102621.17
2019-05-13T20:16:48.912Z,102614.11
2019-05-13T20:19:22.333Z,102624.72
2019-05-13T20:21:54.771Z,102616.81
2019-05-13T20:24:27.881Z,102621.25
2019-05-13T20:27:01.566Z,102619.63
2019-05-13T20:29:35.737Z,102620.97
2019-05-13T20:32:11.640Z,102617.03
2019-05-13T20:34:43.762Z,102620.58
2019-05-13T20:37:15.602Z,102619.78
2019-05-13T20:39:48.656Z,102622.55
2019-05-13T20:42:20.650Z,102616.95
2019-05-13T20:44:57.773Z,102618.80
2019-05-13T20:47:34.558Z,102622.80
2019-05-13T20:50:09.293Z,102620.27
2019-05-13T20:52:42.101Z,102617.63
2019-05-13T20:55:15.570Z,102611.03
2019-05-13T20:57:47.322Z,102613.30
2019-05-13T21:00:20.933Z,102617.79
2019-05-13T21:02:53.099Z,102613.40
2019-05-13T21:05:25.099Z,102608.59
2019-05-13T21:07:56.817Z,102611.74
2019-05-13T21:10:28.587Z,102614.38
2019-05-13T21:13:01.740Z,102611.74
2019-05-13T21:15:33.881Z,102609.09
2019-05-13T21:18:05.619Z,102612.69
2019-05-13T21:20:37.517Z,102608.78
2019-05-13T21:23:11.159Z,102610.14
2019-05-13T21:25:42.525Z,102600.11
2019-05-13T21:28:15.509Z,102611.21
2019-05-13T21:30:47.286Z,102599.88
2019-05-13T21:33:19.012Z,102607.84
2019-05-13T21:35:51.263Z,102600.86
2019-05-13T21:38:23.092Z,102593.88
2019-05-13T21:40:54.837Z,102599.26
2019-05-13T21:43:26.564Z,102596.23
2019-05-13T21:45:58.405Z,102592.30
2019-05-13T21:48:32.316Z,102596.27
2019-05-13T21:51:03.476Z,102583.54
2019-05-13T21:53:36.832Z,102581.80
2019-05-13T21:56:08.483Z,102584.04
2019-05-13T21:58:41.597Z,102577.02
2019-05-13T22:01:15.088Z,102576.16
2019-05-13T22:03:47.603Z,102572.25
2019-05-13T22:06:21.617Z,102573.14
2019-05-13T22:08:52.760Z,102575.81
2019-05-13T22:11:24.633Z,102577.21
2019-05-13T22:13:56.352Z,102575.94
2019-05-13T22:16:28.095Z,102569.34
2019-05-13T22:19:01.528Z,102573.38
2019-05-13T22:21:33.159Z,102573.80
2019-05-13T22:24:04.962Z,102569.02
2019-05-13T22:26:36.603Z,102572.56
2019-05-13T22:29:08.428Z,102566.41
2019-05-13T22:31:41.986Z,102566.41
2019-05-13T22:34:13.789Z,102562.48
2019-05-13T22:36:45.542Z,102569.95
2019-05-13T22:39:17.281Z,102561.22
2019-05-13T22:41:49.044Z,102563.84
2019-05-13T22:44:21.759Z,102562.97
2019-05-13T22:46:53.522Z,102562.98
2019-05-13T22:49:25.263Z,102566.03
2019-05-13T22:51:57.034Z,102563.41
2019-05-13T22:54:31.878Z,102562.97
2019-05-13T22:57:03.952Z,102561.22
2019-05-13T22:59:35.663Z,102564.78
2019-05-13T23:02:07.404Z,102557.77
2019-05-13T23:04:39.199Z,102559.53
2019-05-13T23:07:11.775Z,102566.59
2019-05-13T23:09:43.956Z,102565.75
2019-05-13T23:12:15.706Z,102566.20
2019-05-13T23:14:47.434Z,102564.48
2019-05-13T23:17:21.411Z,102559.20
2019-05-13T23:19:52.803Z,102566.18
2019-05-13T23:22:24.558Z,102563.98
2019-05-13T23:24:56.645Z,102557.36
2019-05-13T23:27:28.388Z,102562.59
2019-05-13T23:30:01.130Z,102559.50
2019-05-13T23:32:34.941Z,102559.88
2019-05-13T23:35:11.004Z,102554.63
2019-05-13T23:37:42.510Z,102552.00
2019-05-13T23:40:16.842Z,102557.69
2019-05-13T23:42:51.815Z,102548.91
2019-05-13T23:45:23.843Z,102547.56
2019-05-13T23:47:55.675Z,102547.08
2019-05-13T23:50:29.237Z,102536.91
2019-05-13T23:53:00.978Z,102539.02
2019-05-13T23:55:33.282Z,102538.87
2019-05-13T23:58:05.893Z,102536.41
